Purcell, MO (64857)

11:56 PM CST del 26 Febbraio 2015 (GMT -0600)
Country Side Estates | Change Station
CLOSE
Current Station
Stazione meteo personale
Location: Webb City, MO
Altitudine: 968 ft
Stazioni meteo nelle vicinanze

Alt. 968 ft 37.16 °N, 94.48 °W | Updated 4 minutes ago

Sereno
Sereno
15.6 °F
Sembra 5 °F
N
8.3
Vento Variabile Vento da Nord

Oggi
Massima -- | Minima -- °F
--% Possibilità di precip.
Ieri
Massima -- | Minima -- °F
Precip. -- in
6:53 AM 6:08 PM
Gobba a ponente, 65% visible
Pressione 30.57 in
Visibilità 10.0 miglia
Nuvole Sereno
Raffreddamento del vento 5 °F
Punto di rugiada 7 °F
Umidità 67%
Piovosità 0.00 in
Spessore del manto nevoso Non disponibile.
Raggi UV 0 fuori da 12
Polline .60 fuori da 12
Qualità dell'aria Non disponibile.
Flu Activity Non disponibile.
METAR KJLN 270553Z AUTO 01010KT 10SM CLR M09/M16 A3053 RMK AO2 SLP351 T10941156 11050 21094 410171094 51017

More Conditions Fewer Conditions

Pressione 30.57 in
Visibilità 10.0 miglia
Nuvole Sereno
Raffreddamento del vento 5 °F
Punto di rugiada 7 °F
Umidità 67%
Piovosità 0.00 in
Spessore del manto nevoso Non disponibile.
Raggi UV 0 fuori da 12
Polline .60 fuori da 12
Qualità dell'aria Non disponibile.
Flu Activity Non disponibile.
METAR KJLN 270553Z AUTO 01010KT 10SM CLR M09/M16 A3053 RMK AO2 SLP351 T10941156 11050 21094 410171094 51017

More Conditions Fewer Conditions

10-Day Weather Forecast

Almanac

Astronomia

Feb. 26, 2015 Alba Tramonto
Ora attuale
Crepuscolo civile
Crepuscolo nautico
Crepuscolo astronomico
Luna
Estensione della luce visibile
Lunghezza del giorno
Tomorrow will be .
, % of the Moon is Illuminated

Gli estremi di oggi

State Highs State Lows

Community

WunderPhotos

Upload Photos

1,800,642 foto caricate!

WunderBlogs® & News

Nearby

Qualità dell'aria

  Qualità dell'aria Indice AQ Inquinante
Not available.

Profondità neve

Stazione Profondità Altitudine

Attività sismica

Città  Distanza Mag. Data & Ora
Minimo Magnitudo Mostrato è 2.5.

Temperature delle acque costiere

Località Temperatura

Stazioni meteo nelle vicinanze